Augusta Township, Michigan
Current Conditions -  °F | °C
As of 4:11 AM on Saturday 25 Oct 2014 (Local Time) from KARB Reporting Station
Haze Haze  
Wind Chill: 31°   Ceiling: 400
Heat Index: 35°   Visibility: 1mi
Dew Point: 33°   Wind: 5mph
Humidity: 92%   Direction: 250°WSW
Pressure: 29.9"   Gusts: NA
Location:  42.0828°N, 83.683°W
Report Text: KARB 250811Z AUTO 25004KT 1SM BR VV004 02/01 A2990 RMK AO2 T00170006
Loading
Personal Weather Stations






























Interactive Weather Map
Tropical Storm Tracking
New forecast layout! Learn more

10-Day Weather Forecast

Advertisements
Track Severe Weather on mobile